createdAt,value
2023-05-19T00:01:57.724Z,66.07
2023-05-19T00:04:32.750Z,66.08
2023-05-19T00:07:08.752Z,66.04
2023-05-19T00:09:43.824Z,65.97
2023-05-19T00:12:18.904Z,66.17
2023-05-19T00:14:54.736Z,66.28
2023-05-19T00:17:29.151Z,65.99
2023-05-19T00:20:07.808Z,65.97
2023-05-19T00:22:41.470Z,65.67
2023-05-19T00:25:15.469Z,65.71
2023-05-19T00:27:49.064Z,65.65
2023-05-19T00:30:23.553Z,65.13
2023-05-19T00:32:57.965Z,65.07
2023-05-19T00:35:32.360Z,65.03
2023-05-19T00:38:06.297Z,64.86
2023-05-19T00:40:43.507Z,65.25
2023-05-19T00:43:17.338Z,65.45
2023-05-19T00:45:51.107Z,65.70
2023-05-19T00:48:24.790Z,65.68
2023-05-19T00:51:04.910Z,65.75
2023-05-19T00:53:39.244Z,65.80
2023-05-19T00:56:13.329Z,65.79
2023-05-19T00:58:47.706Z,65.61
2023-05-19T01:01:22.006Z,65.59
2023-05-19T01:03:57.413Z,65.56
2023-05-19T01:06:31.601Z,65.54
2023-05-19T01:09:05.196Z,65.68
2023-05-19T01:11:38.973Z,65.67
2023-05-19T01:14:12.736Z,65.63
2023-05-19T01:16:52.259Z,65.70
2023-05-19T01:19:52.850Z,65.73
2023-05-19T01:22:43.348Z,65.62
2023-05-19T01:25:32.987Z,65.69
2023-05-19T01:28:26.152Z,65.88
2023-05-19T01:31:01.839Z,65.94
2023-05-19T01:33:36.867Z,65.91
2023-05-19T01:36:12.011Z,65.65
2023-05-19T01:38:46.807Z,65.99
2023-05-19T01:41:21.295Z,65.87
2023-05-19T01:43:57.640Z,65.82
2023-05-19T01:46:31.428Z,65.79
2023-05-19T01:49:05.556Z,65.49
2023-05-19T01:51:41.988Z,65.38
2023-05-19T01:54:15.548Z,65.43
2023-05-19T01:56:54.898Z,65.54
2023-05-19T01:59:39.437Z,65.65
2023-05-19T02:02:18.859Z,65.37
2023-05-19T02:04:56.581Z,65.23
2023-05-19T02:07:37.499Z,65.09
2023-05-19T02:10:16.880Z,65.16
2023-05-19T02:12:51.928Z,64.99
2023-05-19T02:15:29.017Z,64.81
2023-05-19T02:18:05.415Z,64.55
2023-05-19T02:20:39.036Z,64.51
2023-05-19T02:23:12.615Z,64.20
2023-05-19T02:25:47.109Z,64.04
2023-05-19T02:28:21.148Z,63.74
2023-05-19T02:30:54.878Z,63.45
2023-05-19T02:33:31.566Z,63.29
2023-05-19T02:36:05.281Z,62.90
2023-05-19T02:38:39.049Z,62.52
2023-05-19T02:41:12.870Z,62.01
2023-05-19T02:43:46.741Z,61.40
2023-05-19T02:46:20.402Z,60.78
2023-05-19T02:48:54.944Z,60.11
2023-05-19T02:51:29.415Z,59.32
2023-05-19T02:54:04.196Z,58.76
2023-05-19T02:56:37.897Z,58.40
2023-05-19T02:59:11.603Z,57.71
2023-05-19T03:01:45.292Z,57.13
2023-05-19T03:04:20.520Z,56.40
2023-05-19T03:06:54.643Z,55.22
2023-05-19T03:09:28.473Z,54.26
2023-05-19T03:12:04.711Z,53.51
2023-05-19T03:14:39.504Z,52.94
2023-05-19T03:17:13.766Z,52.86
2023-05-19T03:19:47.376Z,52.37
2023-05-19T03:22:21.509Z,51.68
2023-05-19T03:24:55.005Z,50.90
2023-05-19T03:27:28.899Z,49.76
2023-05-19T03:30:06.257Z,48.57
2023-05-19T03:32:40.632Z,46.59
2023-05-19T03:35:14.241Z,45.27
2023-05-19T03:37:50.626Z,43.95
2023-05-19T03:40:24.443Z,42.29
2023-05-19T03:42:58.615Z,41.09
2023-05-19T03:45:32.358Z,41.09
2023-05-19T03:48:06.506Z,40.22
2023-05-19T03:50:40.206Z,39.04
2023-05-19T03:53:14.476Z,37.76
2023-05-19T03:55:49.200Z,36.88
2023-05-19T03:58:22.877Z,36.93
2023-05-19T04:00:56.734Z,36.07
2023-05-19T04:03:30.444Z,36.18
2023-05-19T04:06:04.394Z,36.00
2023-05-19T04:08:38.269Z,35.74
2023-05-19T04:11:12.186Z,35.73
2023-05-19T04:13:45.987Z,34.58
2023-05-19T04:16:20.183Z,32.47
2023-05-19T04:18:53.837Z,30.70
2023-05-19T04:21:27.900Z,29.65
2023-05-19T04:24:01.666Z,28.36
2023-05-19T04:26:35.308Z,27.11
2023-05-19T04:29:11.129Z,26.63
2023-05-19T04:31:45.543Z,25.77
2023-05-19T04:34:20.438Z,24.74
2023-05-19T04:36:55.916Z,24.19
2023-05-19T04:39:30.201Z,23.87
2023-05-19T04:42:04.476Z,23.22
2023-05-19T04:44:38.419Z,22.52
2023-05-19T04:47:15.471Z,22.49
2023-05-19T04:49:49.221Z,22.34
2023-05-19T04:52:23.381Z,23.13
2023-05-19T04:54:58.991Z,22.64
2023-05-19T04:57:32.800Z,23.33
2023-05-19T05:00:09.421Z,24.16
2023-05-19T05:02:45.776Z,24.32
2023-05-19T05:05:20.060Z,24.54
2023-05-19T05:07:54.449Z,24.60
2023-05-19T05:10:28.556Z,25.29
2023-05-19T05:13:03.250Z,25.41
2023-05-19T05:15:40.051Z,25.00
2023-05-19T05:18:15.483Z,25.18
2023-05-19T05:20:50.915Z,25.72
2023-05-19T05:23:23.282Z,26.15
2023-05-19T05:25:58.134Z,26.86
2023-05-19T05:28:31.823Z,27.62
2023-05-19T05:31:06.192Z,27.95
2023-05-19T05:33:40.679Z,27.20
2023-05-19T05:36:14.600Z,26.09
2023-05-19T05:38:49.047Z,25.50
2023-05-19T05:41:25.258Z,25.78
2023-05-19T05:43:59.302Z,25.44
2023-05-19T05:46:33.761Z,24.11
2023-05-19T05:49:10.498Z,22.75
2023-05-19T05:51:57.940Z,21.66
2023-05-19T05:54:40.146Z,20.79
2023-05-19T05:57:18.117Z,20.24
2023-05-19T05:59:51.771Z,20.07
2023-05-19T06:02:28.565Z,19.96
2023-05-19T06:05:03.022Z,19.41
2023-05-19T06:07:36.618Z,18.44
2023-05-19T06:10:14.331Z,18.48
2023-05-19T06:12:47.955Z,18.68
2023-05-19T06:15:21.577Z,19.69
2023-05-19T06:17:55.317Z,19.79
2023-05-19T06:20:29.123Z,20.42
2023-05-19T06:23:05.108Z,20.69
2023-05-19T06:25:38.090Z,21.13
2023-05-19T06:28:11.803Z,21.35
2023-05-19T06:30:45.529Z,21.06
2023-05-19T06:33:22.367Z,20.57
2023-05-19T06:35:56.204Z,20.05
2023-05-19T06:38:29.824Z,19.47
2023-05-19T06:41:03.536Z,18.97
2023-05-19T06:43:37.854Z,18.30
2023-05-19T06:46:13.449Z,17.80
2023-05-19T06:48:47.404Z,17.24
2023-05-19T06:51:23.953Z,16.51
2023-05-19T06:53:57.822Z,16.43
2023-05-19T06:56:35.254Z,17.09
2023-05-19T06:59:08.876Z,17.64
2023-05-19T07:01:42.427Z,18.04
2023-05-19T07:04:16.840Z,18.34
2023-05-19T07:06:50.746Z,19.36
2023-05-19T07:09:25.850Z,19.99
2023-05-19T07:12:02.006Z,20.79
2023-05-19T07:14:37.110Z,21.49
2023-05-19T07:17:12.194Z,22.25
2023-05-19T07:19:48.168Z,23.18
2023-05-19T07:22:24.727Z,24.14
2023-05-19T07:24:57.495Z,24.50
2023-05-19T07:27:32.697Z,24.88
2023-05-19T07:30:07.006Z,25.33
2023-05-19T07:32:42.266Z,25.52
2023-05-19T07:35:15.922Z,25.12
2023-05-19T07:37:49.685Z,24.99
2023-05-19T07:40:23.263Z,25.04
2023-05-19T07:42:56.986Z,25.32
2023-05-19T07:45:31.046Z,25.77
2023-05-19T07:48:04.874Z,26.05
2023-05-19T07:50:41.131Z,25.78
2023-05-19T07:53:14.876Z,25.76
2023-05-19T07:55:48.689Z,26.11
2023-05-19T07:58:22.882Z,25.75
2023-05-19T08:00:59.009Z,25.56
2023-05-19T08:03:33.312Z,25.85
2023-05-19T08:06:08.163Z,26.41
2023-05-19T08:08:43.105Z,26.97
2023-05-19T08:11:17.656Z,27.31
2023-05-19T08:13:51.415Z,27.21
2023-05-19T08:16:25.725Z,27.12
2023-05-19T08:19:03.334Z,26.93
2023-05-19T08:21:39.018Z,26.61
2023-05-19T08:24:13.526Z,27.09
2023-05-19T08:26:48.009Z,27.12
2023-05-19T08:29:21.583Z,27.38
2023-05-19T08:31:55.862Z,27.43
2023-05-19T08:34:29.409Z,27.37
2023-05-19T08:37:03.625Z,27.43
2023-05-19T08:39:37.380Z,27.44
2023-05-19T08:42:14.641Z,27.40
2023-05-19T08:44:48.550Z,27.69
2023-05-19T08:47:23.275Z,27.68
2023-05-19T08:50:04.410Z,27.44
2023-05-19T08:52:49.536Z,27.74
2023-05-19T08:55:31.723Z,27.74
2023-05-19T08:58:06.634Z,27.57
2023-05-19T09:00:42.133Z,27.84
2023-05-19T09:03:22.876Z,27.69
2023-05-19T09:05:57.292Z,27.97
2023-05-19T09:08:31.108Z,28.83
2023-05-19T09:11:04.773Z,29.08
2023-05-19T09:13:38.762Z,29.43
2023-05-19T09:16:13.262Z,29.84
2023-05-19T09:18:58.309Z,30.25
2023-05-19T09:21:35.591Z,30.09
2023-05-19T09:24:11.594Z,29.72
2023-05-19T09:26:47.192Z,29.84
2023-05-19T09:29:21.533Z,29.80
2023-05-19T09:31:56.444Z,30.35
2023-05-19T09:34:30.179Z,30.59
2023-05-19T09:37:04.496Z,31.09
2023-05-19T09:39:38.626Z,31.29
2023-05-19T09:42:12.272Z,31.27
2023-05-19T09:44:46.203Z,31.38
2023-05-19T09:47:19.900Z,31.45
2023-05-19T09:49:53.361Z,31.59
2023-05-19T09:52:45.033Z,31.45
2023-05-19T09:55:23.613Z,31.67
2023-05-19T09:58:00.288Z,31.87
2023-05-19T10:00:35.580Z,31.65
2023-05-19T10:03:10.011Z,31.86
2023-05-19T10:05:43.827Z,32.01
2023-05-19T10:08:18.357Z,32.32
2023-05-19T10:10:52.295Z,32.37
2023-05-19T10:13:26.660Z,32.52
2023-05-19T10:16:01.668Z,32.32
2023-05-19T10:18:39.614Z,32.69
2023-05-19T10:21:14.871Z,32.58
2023-05-19T10:23:49.052Z,32.59
2023-05-19T10:26:23.619Z,32.82
2023-05-19T10:28:58.185Z,32.75
2023-05-19T10:31:36.642Z,32.47
2023-05-19T10:34:30.227Z,32.31
2023-05-19T10:37:13.607Z,32.36
2023-05-19T10:39:47.877Z,32.20
2023-05-19T10:42:31.404Z,32.21
2023-05-19T10:45:11.590Z,32.43
2023-05-19T10:47:46.253Z,32.59
2023-05-19T10:50:23.713Z,32.97
2023-05-19T10:53:00.630Z,32.84
2023-05-19T10:55:53.147Z,33.00
2023-05-19T10:58:52.493Z,33.03
2023-05-19T11:01:26.888Z,33.29
2023-05-19T11:04:06.099Z,33.36
2023-05-19T11:06:41.681Z,33.77
2023-05-19T11:09:22.469Z,34.24
2023-05-19T11:12:08.185Z,34.18
2023-05-19T11:14:42.049Z,34.12
2023-05-19T11:17:18.331Z,34.11
2023-05-19T11:19:59.976Z,34.22
2023-05-19T11:22:36.706Z,34.61
2023-05-19T11:25:11.176Z,35.02
2023-05-19T11:27:45.690Z,35.06
2023-05-19T11:30:21.717Z,35.04
2023-05-19T11:32:54.219Z,35.01
2023-05-19T11:35:28.254Z,35.04
2023-05-19T11:38:04.921Z,35.23
2023-05-19T11:40:38.816Z,35.42
2023-05-19T11:43:12.796Z,35.15
2023-05-19T11:45:47.507Z,35.21
2023-05-19T11:48:24.684Z,35.16
2023-05-19T11:50:58.517Z,35.07
2023-05-19T11:53:34.037Z,35.14
2023-05-19T11:56:09.682Z,35.22
2023-05-19T11:58:43.273Z,35.10
2023-05-19T12:01:17.049Z,35.04
2023-05-19T12:03:50.951Z,34.60
2023-05-19T12:06:24.805Z,34.81
2023-05-19T12:09:00.225Z,34.86
2023-05-19T12:11:35.631Z,35.10
2023-05-19T12:14:10.047Z,35.76
2023-05-19T12:16:45.424Z,36.18
2023-05-19T12:19:20.754Z,36.65
2023-05-19T12:21:54.608Z,37.07
2023-05-19T12:24:28.738Z,37.34
2023-05-19T12:27:11.855Z,37.91
2023-05-19T12:29:50.906Z,38.05
2023-05-19T12:32:27.206Z,38.49
2023-05-19T12:34:59.280Z,38.63
2023-05-19T12:37:33.896Z,38.76
2023-05-19T12:40:09.228Z,38.71
2023-05-19T12:42:49.397Z,38.92
2023-05-19T12:45:26.251Z,39.40
2023-05-19T12:48:00.618Z,39.69
2023-05-19T12:50:36.382Z,39.87
2023-05-19T12:53:12.588Z,40.03
2023-05-19T12:55:47.320Z,40.30
2023-05-19T12:58:24.657Z,40.52
2023-05-19T13:01:02.619Z,40.76
2023-05-19T13:03:49.603Z,41.18
2023-05-19T13:06:23.788Z,42.68
2023-05-19T13:08:57.642Z,43.24
2023-05-19T13:11:31.463Z,43.38
2023-05-19T13:14:05.554Z,43.87
2023-05-19T13:16:43.240Z,43.87
2023-05-19T13:19:24.933Z,43.78
2023-05-19T13:21:59.162Z,43.73
2023-05-19T13:24:34.772Z,44.03
2023-05-19T13:27:11.809Z,43.94
2023-05-19T13:29:45.794Z,43.94
2023-05-19T13:32:20.708Z,44.60
2023-05-19T13:34:54.607Z,44.85
2023-05-19T13:37:28.942Z,44.69
2023-05-19T13:40:02.684Z,45.42
2023-05-19T13:42:37.293Z,45.27
2023-05-19T13:45:13.301Z,44.96
2023-05-19T13:47:46.815Z,45.16
2023-05-19T13:50:20.483Z,45.45
2023-05-19T13:52:54.322Z,45.41
2023-05-19T13:55:28.206Z,45.28
2023-05-19T13:58:01.827Z,45.47
2023-05-19T14:00:36.565Z,45.29
2023-05-19T14:03:10.652Z,45.12
2023-05-19T14:05:44.607Z,45.38
2023-05-19T14:08:18.207Z,45.27
2023-05-19T14:10:52.988Z,45.28
2023-05-19T14:13:34.714Z,45.44
2023-05-19T14:16:13.764Z,45.59
2023-05-19T14:18:48.905Z,45.59
2023-05-19T14:21:22.463Z,45.74
2023-05-19T14:23:55.996Z,46.14
2023-05-19T14:26:29.692Z,46.49
2023-05-19T14:29:04.861Z,46.60
2023-05-19T14:31:38.768Z,46.59
2023-05-19T14:34:18.182Z,46.74
2023-05-19T14:36:52.194Z,46.89
2023-05-19T14:39:25.686Z,46.97
2023-05-19T14:41:59.998Z,46.77
2023-05-19T14:44:35.888Z,47.08
2023-05-19T14:47:11.788Z,47.28
2023-05-19T14:49:46.075Z,47.31
2023-05-19T14:52:21.874Z,47.49
2023-05-19T14:54:56.489Z,47.96
2023-05-19T14:57:30.348Z,48.30
2023-05-19T15:00:04.124Z,48.80
2023-05-19T15:02:37.878Z,49.35
2023-05-19T15:05:13.421Z,49.99
2023-05-19T15:07:47.457Z,50.54
2023-05-19T15:10:21.450Z,50.26
2023-05-19T15:12:55.086Z,50.91
2023-05-19T15:15:28.513Z,51.60
2023-05-19T15:18:02.100Z,52.74
2023-05-19T15:20:36.478Z,53.37
2023-05-19T15:23:10.440Z,53.86
2023-05-19T15:25:45.830Z,54.28
2023-05-19T15:28:19.391Z,54.87
2023-05-19T15:30:57.376Z,55.67
2023-05-19T15:33:31.441Z,56.27
2023-05-19T15:36:07.876Z,57.06
2023-05-19T15:38:42.916Z,57.23
2023-05-19T15:41:16.572Z,57.01
2023-05-19T15:43:50.130Z,57.34
2023-05-19T15:46:23.762Z,57.56
2023-05-19T15:48:57.499Z,57.68
2023-05-19T15:51:31.967Z,57.72
2023-05-19T15:54:07.866Z,58.76
2023-05-19T15:56:41.472Z,59.28
2023-05-19T15:59:15.036Z,59.59
2023-05-19T16:01:52.083Z,60.05
2023-05-19T16:04:26.779Z,60.34
2023-05-19T16:07:00.453Z,61.01
2023-05-19T16:09:34.508Z,61.39
2023-05-19T16:12:09.144Z,61.76
2023-05-19T16:14:42.828Z,62.22
2023-05-19T16:17:19.612Z,62.48
2023-05-19T16:19:53.525Z,62.56
2023-05-19T16:22:27.593Z,62.22
2023-05-19T16:25:01.130Z,62.13
2023-05-19T16:27:34.816Z,62.46
2023-05-19T16:30:09.999Z,62.81
2023-05-19T16:32:43.923Z,62.93
2023-05-19T16:35:17.525Z,63.69
2023-05-19T16:37:52.098Z,64.12
2023-05-19T16:40:25.732Z,64.14
2023-05-19T16:43:00.275Z,64.09
2023-05-19T16:45:34.009Z,64.26
2023-05-19T16:48:08.423Z,64.49
2023-05-19T16:50:42.141Z,64.59
2023-05-19T16:53:16.169Z,65.01
2023-05-19T16:55:49.988Z,65.16
2023-05-19T16:58:23.786Z,65.19
2023-05-19T17:00:59.256Z,65.41
2023-05-19T17:03:33.777Z,65.55
2023-05-19T17:06:08.969Z,65.67
2023-05-19T17:08:42.939Z,65.88
2023-05-19T17:11:19.753Z,66.19
2023-05-19T17:13:53.389Z,66.53
2023-05-19T17:16:27.400Z,66.57
2023-05-19T17:19:01.303Z,66.96
2023-05-19T17:21:34.909Z,67.04
2023-05-19T17:24:09.314Z,67.21
2023-05-19T17:26:43.017Z,67.10
2023-05-19T17:29:16.570Z,67.18
2023-05-19T17:31:50.370Z,67.15
2023-05-19T17:34:24.042Z,67.13
2023-05-19T17:36:57.865Z,67.21
2023-05-19T17:39:31.433Z,67.49
2023-05-19T17:42:08.017Z,67.73
2023-05-19T17:44:43.818Z,68.01
2023-05-19T17:47:17.497Z,68.09
2023-05-19T17:49:53.293Z,68.06
2023-05-19T17:52:28.191Z,68.14
2023-05-19T17:55:03.016Z,68.11
2023-05-19T17:57:42.883Z,68.26
2023-05-19T18:00:18.072Z,68.19
2023-05-19T18:02:53.575Z,68.05
2023-05-19T18:05:28.568Z,67.79
2023-05-19T18:08:05.530Z,67.97
2023-05-19T18:10:41.156Z,68.07
2023-05-19T18:13:16.158Z,67.87
2023-05-19T18:15:49.910Z,67.53
2023-05-19T18:18:23.687Z,67.30
2023-05-19T18:20:57.608Z,67.43
2023-05-19T18:23:31.781Z,67.30
2023-05-19T18:26:05.295Z,67.05
2023-05-19T18:28:39.199Z,67.30
2023-05-19T18:31:19.890Z,67.56
2023-05-19T18:33:54.037Z,67.65
2023-05-19T18:36:28.211Z,67.53
2023-05-19T18:39:04.994Z,67.51
2023-05-19T18:41:41.786Z,67.62
2023-05-19T18:44:15.911Z,67.72
2023-05-19T18:46:50.025Z,67.72
2023-05-19T18:49:25.310Z,67.83
2023-05-19T18:51:58.973Z,67.94
2023-05-19T18:54:32.992Z,67.99
2023-05-19T18:57:07.090Z,67.99
2023-05-19T18:59:41.266Z,68.07
2023-05-19T19:02:16.846Z,68.08
2023-05-19T19:04:51.688Z,68.19
2023-05-19T19:07:25.824Z,68.12
2023-05-19T19:10:01.777Z,68.24
2023-05-19T19:12:36.489Z,68.24
2023-05-19T19:15:15.629Z,68.34
2023-05-19T19:17:50.671Z,68.30
2023-05-19T19:20:24.526Z,68.28
2023-05-19T19:23:02.268Z,68.24
2023-05-19T19:25:38.087Z,68.22
2023-05-19T19:28:12.183Z,68.24
2023-05-19T19:30:45.883Z,68.05
2023-05-19T19:33:20.916Z,67.88
2023-05-19T19:35:54.854Z,67.87
2023-05-19T19:38:30.748Z,68.06
2023-05-19T19:41:04.707Z,68.30
2023-05-19T19:43:38.487Z,68.44
2023-05-19T19:46:20.111Z,68.42
2023-05-19T19:48:53.788Z,68.37
2023-05-19T19:51:28.723Z,68.25
2023-05-19T19:54:02.877Z,68.38
2023-05-19T19:56:36.639Z,68.49
2023-05-19T19:59:11.700Z,68.64
2023-05-19T20:01:45.630Z,68.75
2023-05-19T20:04:19.504Z,69.01
2023-05-19T20:06:53.327Z,69.03
2023-05-19T20:09:30.174Z,69.11
2023-05-19T20:12:04.354Z,69.13
2023-05-19T20:14:40.452Z,69.27
2023-05-19T20:17:14.131Z,69.32
2023-05-19T20:19:50.052Z,69.25
2023-05-19T20:22:23.662Z,69.39
2023-05-19T20:24:58.113Z,69.45
2023-05-19T20:27:31.833Z,69.39
2023-05-19T20:30:05.607Z,69.34
2023-05-19T20:32:40.233Z,69.38
2023-05-19T20:35:15.485Z,69.43
2023-05-19T20:37:49.872Z,69.70
2023-05-19T20:40:23.981Z,69.85
2023-05-19T20:42:57.823Z,69.87
2023-05-19T20:45:33.988Z,69.92
2023-05-19T20:48:08.381Z,69.70
2023-05-19T20:50:43.236Z,69.61
2023-05-19T20:53:20.864Z,69.18
2023-05-19T20:55:56.629Z,68.88
2023-05-19T20:58:32.874Z,69.32
2023-05-19T21:01:06.778Z,69.55
2023-05-19T21:03:40.811Z,69.70
2023-05-19T21:06:14.853Z,69.91
2023-05-19T21:08:49.051Z,69.94
2023-05-19T21:11:24.799Z,69.92
2023-05-19T21:13:58.469Z,69.88
2023-05-19T21:16:32.539Z,69.84
2023-05-19T21:19:06.976Z,69.72
2023-05-19T21:21:43.388Z,69.71
2023-05-19T21:24:17.426Z,69.31
2023-05-19T21:26:51.952Z,69.17
2023-05-19T21:29:26.357Z,69.03
2023-05-19T21:32:00.228Z,69.01
2023-05-19T21:34:33.818Z,69.06
2023-05-19T21:37:07.853Z,68.87
2023-05-19T21:39:41.548Z,69.08
2023-05-19T21:42:15.497Z,69.08
2023-05-19T21:44:49.022Z,69.18
2023-05-19T21:47:22.512Z,69.49
2023-05-19T21:49:56.141Z,69.74
2023-05-19T21:52:29.976Z,69.81
2023-05-19T21:55:03.561Z,69.82
2023-05-19T21:57:38.657Z,69.97
2023-05-19T22:00:14.285Z,70.01
2023-05-19T22:02:47.895Z,69.93
2023-05-19T22:05:21.828Z,70.23
2023-05-19T22:07:55.599Z,70.41
2023-05-19T22:10:29.632Z,70.45
2023-05-19T22:13:03.477Z,70.53
2023-05-19T22:15:37.088Z,70.45
2023-05-19T22:18:10.593Z,70.42
2023-05-19T22:20:44.296Z,70.51
2023-05-19T22:23:17.818Z,70.62
2023-05-19T22:25:51.859Z,70.60
2023-05-19T22:28:25.494Z,70.48
2023-05-19T22:30:58.902Z,70.47
2023-05-19T22:33:32.820Z,70.55
2023-05-19T22:36:08.909Z,70.63
2023-05-19T22:38:42.939Z,70.68
2023-05-19T22:41:16.489Z,70.57
2023-05-19T22:43:50.017Z,70.82
2023-05-19T22:46:23.688Z,70.85
2023-05-19T22:48:57.211Z,70.97
2023-05-19T22:51:31.921Z,71.07
2023-05-19T22:54:05.916Z,71.25
2023-05-19T22:56:39.513Z,71.20
2023-05-19T22:59:14.676Z,71.25
2023-05-19T23:01:48.283Z,71.32
2023-05-19T23:04:22.248Z,71.41
2023-05-19T23:06:57.931Z,71.43
2023-05-19T23:09:31.548Z,71.51
2023-05-19T23:12:05.497Z,71.72
2023-05-19T23:14:40.656Z,71.63
2023-05-19T23:17:14.411Z,71.60
2023-05-19T23:19:48.716Z,71.42
2023-05-19T23:22:22.445Z,70.96
2023-05-19T23:24:56.345Z,70.87
2023-05-19T23:27:29.954Z,70.78
2023-05-19T23:30:03.733Z,70.69
2023-05-19T23:32:37.790Z,70.82
2023-05-19T23:35:16.130Z,70.78
2023-05-19T23:37:50.267Z,70.72
2023-05-19T23:40:24.300Z,70.80
2023-05-19T23:42:58.337Z,70.69
2023-05-19T23:45:32.097Z,70.65
2023-05-19T23:48:06.091Z,70.60
2023-05-19T23:50:39.997Z,70.59
2023-05-19T23:53:13.892Z,70.81
2023-05-19T23:55:48.652Z,70.92
2023-05-19T23:58:23.812Z,71.01
